Time;durP1;ratioP1;P1;durP2;ratioP2;P2;SDS_P1;SDS_P2;PMS_P1;PMS_P2;Temp;Humidity;BMP_temperature;BMP_pressure;BME280_temperature;BME280_humidity;BME280_pressure;Samples;Min_cycle;Max_cycle;Signal;HPM_P1;HPM_P2
2022/06/02 00:01:05;;;;;;;;;;;;;;;16.92;100.00;99745.45;1713172;82;21037;-60
2022/06/02 00:03:43;;;;;;;3.35;1.55;;;;;;;16.92;100.00;99757.83;1716391;82;20107;-60
2022/06/02 00:06:17;;;;;;;4.50;1.90;;;;;;;16.70;100.00;99732.52;1656153;82;21045;-59
2022/06/02 00:09:12;;;;;;;5.40;1.72;;;;;;;16.82;100.00;99759.45;1695345;82;21554;-60
2022/06/02 00:11:59;;;;;;;7.12;2.25;;;;;;;16.68;100.00;99742.21;1694484;82;21069;-61
2022/06/02 00:14:47;;;;;;;4.03;1.98;;;;;;;16.86;100.00;99765.96;1698514;83;20994;-60
2022/06/02 00:17:31;;;;;;;5.67;2.50;;;;;;;16.93;100.00;99758.09;1702279;82;21400;-60
2022/06/02 00:20:25;;;;;;;3.12;2.20;;;;;;;17.00;100.00;99747.45;1699831;82;21049;-60
2022/06/02 00:23:28;;;;;;;5.25;2.40;;;;;;;17.04;100.00;99759.43;1701956;82;21216;-60
2022/06/02 00:26:03;;;;;;;5.90;2.35;;;;;;;17.08;100.00;99767.30;1696309;84;21068;-61
2022/06/02 00:28:54;;;;;;;;;;;;;;;17.12;100.00;99769.69;1694738;82;21002;-60
2022/06/02 00:31:36;;;;;;;3.67;2.10;;;;;;;17.15;100.00;99763.55;1672597;83;20129;-60
2022/06/02 00:34:17;;;;;;;3.62;2.10;;;;;;;17.05;100.00;99760.25;1689683;83;21069;-61
2022/06/02 00:37:09;;;;;;;4.28;2.20;;;;;;;16.98;100.00;99783.25;1684932;83;21873;-60
2022/06/02 00:39:36;;;;;;;9.60;4.25;;;;;;;17.00;100.00;99814.83;1678642;84;21007;-60
2022/06/02 00:42:14;;;;;;;7.10;3.40;;;;;;;17.04;100.00;99834.27;1691532;83;21011;-59
2022/06/02 00:45:00;;;;;;;7.08;3.37;;;;;;;17.02;100.00;99849.70;1695808;82;21011;-60
2022/06/02 00:47:54;;;;;;;5.95;2.83;;;;;;;16.91;100.00;99839.50;1691101;83;20970;-60
2022/06/02 00:50:32;;;;;;;6.67;3.00;;;;;;;16.93;100.00;99838.39;1686429;83;21058;-61
2022/06/02 00:53:13;;;;;;;3.25;2.40;;;;;;;16.93;100.00;99833.11;1701077;82;20994;-61
2022/06/02 00:59:17;;;;;;;4.30;2.50;;;;;;;16.93;100.00;99835.86;1686304;83;21022;-60
2022/06/02 01:01:44;;;;;;;6.70;2.70;;;;;;;16.91;100.00;99837.30;1662809;83;21047;-60
2022/06/02 01:04:13;;;;;;;3.33;2.30;;;;;;;16.90;100.00;99833.74;1686521;84;21596;-60
2022/06/02 01:06:57;;;;;;;5.85;2.75;;;;;;;16.93;100.00;99840.58;1681999;84;21042;-61
2022/06/02 01:10:06;;;;;;;3.37;2.33;;;;;;;16.97;100.00;99848.43;1675941;84;21618;-61
2022/06/02 01:13:02;;;;;;;3.72;2.62;;;;;;;16.98;100.00;99839.63;1678960;83;20995;-61
2022/06/02 01:16:02;;;;;;;6.12;2.60;;;;;;;16.95;100.00;99842.44;1681682;84;22041;-61
2022/06/02 01:18:34;;;;;;;6.65;2.75;;;;;;;16.90;100.00;99837.05;1673561;84;21489;-61
2022/06/02 01:21:45;;;;;;;5.10;2.65;;;;;;;16.80;100.00;99829.86;1682241;84;21576;-61
2022/06/02 01:24:40;;;;;;;4.42;2.58;;;;;;;16.72;100.00;99824.30;1680935;83;20979;-61
2022/06/02 01:27:12;;;;;;;5.58;3.10;;;;;;;16.67;100.00;99820.28;1671368;84;21017;-59
2022/06/02 01:30:20;;;;;;;5.62;3.00;;;;;;;16.66;100.00;99809.03;1697230;83;21019;-60
2022/06/02 01:32:52;;;;;;;3.70;2.75;;;;;;;16.64;100.00;99814.03;1674827;83;20994;-59
2022/06/02 01:35:29;;;;;;;7.25;3.60;;;;;;;16.59;100.00;99812.20;1728243;82;21037;-60
2022/06/02 01:38:06;;;;;;;6.87;3.20;;;;;;;16.58;100.00;99803.70;1718207;82;21052;-60
2022/06/02 01:40:49;;;;;;;7.58;4.50;;;;;;;16.58;100.00;99789.17;1720974;81;21709;-60
2022/06/02 01:43:44;;;;;;;7.17;4.33;;;;;;;16.59;100.00;99778.41;1740396;81;21001;-59
2022/06/02 01:46:45;;;;;;;15.38;9.05;;;;;;;16.56;100.00;99776.29;1720037;81;21094;-60
2022/06/02 01:49:47;;;;;;;15.53;9.65;;;;;;;16.54;100.00;99780.70;1716281;81;21508;-60
2022/06/02 01:52:46;;;;;;;21.17;13.40;;;;;;;16.51;100.00;99775.80;1604834;87;20983;-59
2022/06/02 01:55:47;;;;;;;22.75;13.72;;;;;;;16.49;100.00;99775.88;1692093;82;21077;-60
2022/06/02 01:58:25;;;;;;;21.25;14.58;;;;;;;16.47;100.00;99767.14;1707042;82;21025;-61
2022/06/02 02:01:00;;;;;;;23.22;14.90;;;;;;;16.44;100.00;99771.30;1718463;82;21575;-60
2022/06/02 02:03:40;;;;;;;21.80;14.95;;;;;;;16.42;100.00;99773.55;1715781;82;20933;-61
2022/06/02 02:06:24;;;;;;;24.12;15.08;;;;;;;16.43;100.00;99766.39;1720537;82;21045;-60
2022/06/02 02:09:23;;;;;;;25.00;16.57;;;;;;;16.44;100.00;99763.05;1716098;82;21016;-60
2022/06/02 02:11:52;;;;;;;18.45;11.90;;;;;;;16.41;100.00;99771.36;1704141;83;21033;-61
2022/06/02 02:14:48;;;;;;;13.72;9.20;;;;;;;16.41;100.00;99778.79;1703052;82;21059;-61
2022/06/02 02:17:53;;;;;;;12.05;7.70;;;;;;;16.42;100.00;99789.48;1717513;81;21042;-61
2022/06/02 02:20:49;;;;;;;12.75;7.33;;;;;;;16.48;100.00;99792.09;1728805;81;21088;-61
2022/06/02 02:23:42;;;;;;;10.63;7.25;;;;;;;16.50;100.00;99798.11;1731828;82;20989;-61
2022/06/02 02:26:31;;;;;;;9.90;7.22;;;;;;;16.57;100.00;99795.78;1705271;82;21587;-60
2022/06/02 02:29:40;;;;;;;10.13;6.47;;;;;;;16.60;100.00;99791.86;1708656;82;21053;-61
2022/06/02 02:32:22;;;;;;;8.43;5.78;;;;;;;16.66;100.00;99802.16;1701368;82;21729;-61
2022/06/02 02:35:14;;;;;;;9.20;5.78;;;;;;;16.73;100.00;99808.86;1723996;81;21024;-61
2022/06/02 02:37:55;;;;;;;13.18;6.40;;;;;;;16.77;100.00;99806.30;1730151;81;20941;-61
2022/06/02 02:40:30;;;;;;;8.48;5.83;;;;;;;16.75;100.00;99809.38;1740511;81;21049;-61
2022/06/02 02:43:21;;;;;;;11.95;6.75;;;;;;;16.64;100.00;99788.75;1709741;82;21483;-61
2022/06/02 02:46:09;;;;;;;11.60;7.47;;;;;;;16.76;100.00;99807.41;1702722;82;21044;-61
2022/06/02 02:49:06;;;;;;;;;;;;;;;16.68;100.00;99805.43;1733350;81;20996;-61
2022/06/02 02:51:42;;;;;;;10.05;6.53;;;;;;;16.60;100.00;99812.47;1680001;83;20121;-60
2022/06/02 02:54:32;;;;;;;12.55;7.65;;;;;;;16.55;100.00;99807.59;1696279;82;21023;-61
2022/06/02 02:57:11;;;;;;;10.20;7.72;;;;;;;16.54;100.00;99803.25;1729115;82;21087;-60
2022/06/02 02:59:52;;;;;;;10.03;7.03;;;;;;;16.52;100.00;99811.78;1727315;82;20989;-59
2022/06/02 03:02:42;;;;;;;10.30;7.22;;;;;;;16.53;100.00;99802.98;1707494;83;20998;-59
2022/06/02 03:05:30;;;;;;;10.55;7.35;;;;;;;16.57;100.00;99808.16;1732702;82;21108;-61
2022/06/02 03:08:11;;;;;;;9.48;6.97;;;;;;;16.59;100.00;99799.84;1728251;82;21005;-61
2022/06/02 03:10:39;;;;;;;12.07;7.65;;;;;;;16.61;100.00;99805.86;1700670;83;21595;-61
2022/06/02 03:13:26;;;;;;;12.03;7.60;;;;;;;16.66;100.00;99800.78;1696693;82;20988;-61
2022/06/02 03:15:59;;;;;;;9.53;7.03;;;;;;;16.67;100.00;99807.36;1693268;82;21084;-61
2022/06/02 03:18:50;;;;;;;11.80;7.17;;;;;;;16.74;100.00;99808.30;1708460;83;20989;-61
2022/06/02 03:21:24;;;;;;;11.57;8.10;;;;;;;16.75;100.00;99807.19;1711730;83;21109;-60
2022/06/02 03:24:15;;;;;;;11.53;8.13;;;;;;;16.78;100.00;99812.88;1701379;83;21000;-61
2022/06/02 03:26:59;;;;;;;11.45;7.28;;;;;;;16.93;100.00;99811.12;1697475;83;21073;-60
2022/06/02 03:29:51;;;;;;;10.48;6.85;;;;;;;17.18;100.00;99817.14;1667684;83;21623;-60
2022/06/02 03:32:51;;;;;;;9.90;6.67;;;;;;;17.45;100.00;99824.42;1718350;83;21025;-60
2022/06/02 03:35:35;;;;;;;9.28;7.20;;;;;;;17.67;100.00;99822.48;1713080;83;21112;-60
2022/06/02 03:38:26;;;;;;;10.50;6.55;;;;;;;17.86;100.00;99827.17;1705842;83;21587;-60
2022/06/02 03:41:32;;;;;;;10.08;6.20;;;;;;;17.90;100.00;99821.84;1704217;83;21604;-60
2022/06/02 03:44:24;;;;;;;9.25;5.75;;;;;;;17.93;100.00;99821.20;1712611;83;21008;-60
2022/06/02 03:47:12;;;;;;;10.53;5.90;;;;;;;17.80;100.00;99819.38;1700074;83;21052;-60
2022/06/02 03:49:53;;;;;;;7.80;5.78;;;;;;;17.78;100.00;99817.52;1710384;83;20980;-60
2022/06/02 03:52:28;;;;;;;9.25;5.20;;;;;;;17.83;100.00;99825.63;1718758;83;21021;-61
2022/06/02 03:55:36;;;;;;;7.65;5.12;;;;;;;17.85;100.00;99828.30;1720209;83;21007;-61
2022/06/02 03:58:34;;;;;;;7.92;5.67;;;;;;;17.91;100.00;99831.73;1712493;83;21056;-61
2022/06/02 04:01:04;;;;;;;9.35;5.33;;;;;;;17.95;100.00;99828.60;1716266;83;21072;-61
2022/06/02 04:03:56;;;;;;;9.60;5.80;;;;;;;18.05;100.00;99833.00;1719881;83;21004;-60
2022/06/02 04:06:46;;;;;;;7.10;4.87;;;;;;;18.13;100.00;99837.74;1713664;83;21493;-61
2022/06/02 04:09:49;;;;;;;7.37;5.20;;;;;;;18.25;100.00;99838.73;1710662;82;21020;-61
2022/06/02 04:15:30;;;;;;;7.92;5.35;;;;;;;18.46;100.00;99831.27;1723642;82;21056;-61
2022/06/02 04:18:06;;;;;;;8.70;6.05;;;;;;;18.51;100.00;99827.81;1699201;83;20984;-60
2022/06/02 04:21:09;;;;;;;7.65;5.53;;;;;;;18.63;100.00;99821.67;1697422;83;21615;-61
2022/06/02 04:23:51;;;;;;;9.40;6.12;;;;;;;18.77;100.00;99827.85;1704486;83;20990;-61
2022/06/02 04:26:45;;;;;;;9.00;5.58;;;;;;;18.91;100.00;99827.13;1701140;83;21136;-61
2022/06/02 04:29:42;;;;;;;8.95;5.50;;;;;;;19.00;100.00;99828.48;1693097;83;20993;-61
2022/06/02 04:32:41;;;;;;;12.03;5.70;;;;;;;19.07;100.00;99824.11;1680314;84;21053;-60
2022/06/02 04:35:28;;;;;;;10.78;5.85;;;;;;;19.17;100.00;99832.05;1706795;83;21128;-61
2022/06/02 04:38:27;;;;;;;8.33;6.12;;;;;;;19.16;100.00;99832.39;1703380;83;20978;-60
2022/06/02 04:41:20;;;;;;;8.55;5.90;;;;;;;19.13;100.00;99833.05;1694150;83;21110;-60
2022/06/02 04:44:13;;;;;;;9.43;6.00;;;;;;;19.08;100.00;99823.55;1695713;83;20963;-60
2022/06/02 04:46:48;;;;;;;9.30;6.00;;;;;;;19.06;100.00;99829.97;1693697;83;21130;-60
2022/06/02 04:49:32;;;;;;;9.70;6.10;;;;;;;19.19;100.00;99826.21;1695942;83;21581;-62
2022/06/02 04:52:32;;;;;;;8.03;5.87;;;;;;;19.30;100.00;99833.02;1707839;83;21676;-61
2022/06/02 04:55:27;;;;;;;7.15;5.30;;;;;;;19.31;100.00;99827.72;1707074;83;20991;-61
2022/06/02 04:58:06;;;;;;;8.45;5.65;;;;;;;19.34;100.00;99827.09;1704708;83;20967;-61
2022/06/02 05:01:28;;;;;;;9.13;5.97;;;;;;;19.41;100.00;99832.95;1700889;83;21066;-62
2022/06/02 05:04:31;;;;;;;8.23;5.37;;;;;;;19.46;100.00;99838.85;1697296;83;21515;-60
2022/06/02 05:07:09;;;;;;;8.33;5.47;;;;;;;19.53;100.00;99833.64;1709484;83;21036;-62
2022/06/02 05:09:48;;;;;;;7.78;5.35;;;;;;;19.69;100.00;99838.33;1700418;83;22021;-61
2022/06/02 05:12:58;;;;;;;8.83;5.47;;;;;;;19.81;100.00;99826.00;1703372;83;21034;-62
2022/06/02 05:15:45;;;;;;;9.90;6.00;;;;;;;19.94;100.00;99813.13;1699063;83;21051;-62
2022/06/02 05:18:49;;;;;;;8.95;5.60;;;;;;;20.06;100.00;99813.22;1702463;83;20975;-61
2022/06/02 05:21:46;;;;;;;9.18;5.47;;;;;;;20.14;100.00;99796.36;1683508;83;21039;-61
2022/06/02 05:24:19;;;;;;;;;;;;;;;20.08;100.00;99788.84;1708635;83;21034;-61
2022/06/02 05:27:20;;;;;;;7.28;5.22;;;;;;;20.19;100.00;99794.20;1709661;83;20136;-61
2022/06/02 05:30:18;;;;;;;7.78;5.65;;;;;;;20.11;100.00;99790.13;1700142;83;21036;-61
2022/06/02 05:33:23;;;;;;;8.53;5.05;;;;;;;20.05;100.00;99793.63;1692434;84;21605;-60
2022/06/02 05:36:39;;;;;;;7.55;5.22;;;;;;;20.08;100.00;99790.23;1692335;85;21078;-61
2022/06/02 05:39:43;;;;;;;6.65;4.80;;;;;;;20.20;100.00;99798.59;1698429;83;20983;-58
2022/06/02 05:42:31;;;;;;;8.63;4.30;;;;;;;20.29;100.00;99795.26;1691660;84;21031;-62
2022/06/02 05:45:38;;;;;;;7.95;4.47;;;;;;;20.37;100.00;99804.61;1695687;82;20979;-61
2022/06/02 05:48:24;;;;;;;;;;;;;;;20.51;100.00;99801.02;1702818;82;21606;-61
2022/06/02 05:51:08;;;;;;;6.05;4.47;;;;;;;20.65;100.00;99794.66;1696844;82;20128;-60
2022/06/02 05:53:59;;;;;;;6.70;4.17;;;;;;;20.60;100.00;99789.34;1708688;82;21727;-61
2022/06/02 05:57:21;;;;;;;7.80;4.62;;;;;;;20.52;100.00;99794.36;1698511;82;21031;-60
2022/06/02 06:00:14;;;;;;;5.92;4.42;;;;;;;20.75;100.00;99810.87;1709559;82;21386;-60
2022/06/02 06:02:56;;;;;;;6.65;4.78;;;;;;;21.07;100.00;99803.77;1706971;83;21613;-61
2022/06/02 06:05:29;;;;;;;7.45;5.10;;;;;;;21.26;100.00;99796.35;1692505;82;21134;-60
2022/06/02 06:08:17;;;;;;;5.97;4.70;;;;;;;21.59;100.00;99804.64;1698229;83;21007;-60
2022/06/02 06:11:26;;;;;;;9.88;4.65;;;;;;;22.19;100.00;99802.53;1682177;83;21121;-61
2022/06/02 06:14:33;;;;;;;6.37;4.58;;;;;;;22.81;100.00;99797.36;1695122;83;21031;-60
2022/06/02 06:17:17;;;;;;;6.40;4.80;;;;;;;23.25;100.00;99777.99;1699827;83;21683;-61
2022/06/02 06:20:09;;;;;;;8.43;6.10;;;;;;;23.30;100.00;99777.17;1717949;83;21514;-61
2022/06/02 06:23:09;;;;;;;8.85;6.17;;;;;;;23.47;100.00;99781.61;1706836;83;21629;-61
2022/06/02 06:25:51;;;;;;;8.85;6.05;;;;;;;23.62;100.00;99781.41;1692983;83;21501;-61
2022/06/02 06:28:19;;;;;;;9.58;6.05;;;;;;;23.89;100.00;99776.92;1704378;83;20988;-61
2022/06/02 06:31:12;;;;;;;11.18;6.20;;;;;;;25.12;100.00;99779.77;1703910;83;21684;-62
2022/06/02 06:34:16;;;;;;;7.17;5.15;;;;;;;25.12;100.00;99779.77;1707348;83;21000;-61
2022/06/02 06:37:03;;;;;;;8.00;5.92;;;;;;;25.58;100.00;99774.29;1697849;83;21058;-61
2022/06/02 06:39:54;;;;;;;7.78;4.67;;;;;;;25.82;100.00;99773.14;1698046;82;21606;-61
2022/06/02 06:46:12;;;;;;;7.25;4.50;;;;;;;26.57;100.00;99771.75;1790377;78;23360;-59
2022/06/02 06:48:50;;;;;;;5.35;4.00;;;;;;;26.37;100.00;99778.03;1735499;81;21022;-59
2022/06/02 06:51:37;;;;;;;6.47;3.75;;;;;;;26.28;100.00;99775.30;1700955;83;21046;-60
2022/06/02 06:54:31;;;;;;;5.60;3.33;;;;;;;26.40;100.00;99784.84;1688088;83;21552;-62
2022/06/02 06:57:11;;;;;;;4.03;2.72;;;;;;;26.62;100.00;99793.16;1687928;83;21037;-60
2022/06/02 06:59:59;;;;;;;5.47;3.40;;;;;;;26.96;100.00;99787.04;1665550;84;20998;-59
2022/06/02 07:02:55;;;;;;;5.20;2.83;;;;;;;26.83;100.00;99789.06;1696372;83;21482;-60
2022/06/02 07:05:53;;;;;;;4.53;2.90;;;;;;;26.38;100.00;99785.23;1691875;83;21639;-59
2022/06/02 07:08:39;;;;;;;4.22;2.83;;;;;;;26.55;100.00;99783.28;1695497;83;21325;-60
2022/06/02 07:14:53;;;;;;;6.92;3.10;;;;;;;27.36;100.00;99789.70;1694855;83;21510;-60
2022/06/02 07:17:32;;;;;;;5.30;3.45;;;;;;;27.35;100.00;99790.91;1693784;83;21003;-60
2022/06/02 07:20:30;;;;;;;4.97;3.20;;;;;;;27.71;100.00;99794.29;1687408;83;21078;-59
2022/06/02 07:23:26;;;;;;;5.78;3.30;;;;;;;27.51;100.00;99793.70;1644913;83;20995;-58
2022/06/02 07:26:08;;;;;;;6.65;4.08;;;;;;;27.37;100.00;99799.70;1695688;83;21016;-59
2022/06/02 07:28:59;;;;;;;6.80;3.72;;;;;;;27.37;100.00;99792.12;1677421;83;21014;-60
2022/06/02 07:32:20;;;;;;;5.10;3.50;;;;;;;27.48;100.00;99802.06;1651643;83;21627;-60
2022/06/02 07:35:22;;;;;;;4.67;3.15;;;;;;;27.66;100.00;99794.66;1691540;83;21586;-58
2022/06/02 07:38:06;;;;;;;5.50;3.30;;;;;;;27.55;100.00;99802.94;1694203;84;21466;-61
2022/06/02 07:41:15;;;;;;;6.75;3.50;;;;;;;27.85;100.00;99804.21;1695729;82;21139;-60
2022/06/02 07:43:56;;;;;;;7.35;3.85;;;;;;;28.01;100.00;99807.57;1686740;84;21002;-60
2022/06/02 07:46:52;;;;;;;6.72;4.05;;;;;;;28.42;100.00;99804.70;1685166;84;21031;-59
2022/06/02 07:49:39;;;;;;;6.30;3.67;;;;;;;28.56;100.00;99800.00;1680547;84;21054;-60
2022/06/02 07:52:26;;;;;;;6.08;3.75;;;;;;;28.79;100.00;99807.37;1684625;82;21063;-60
2022/06/02 07:55:01;;;;;;;7.78;4.25;;;;;;;28.74;100.00;99810.53;1678437;84;21025;-60
2022/06/02 07:57:48;;;;;;;5.53;3.75;;;;;;;28.69;100.00;99809.52;1685876;84;21000;-59
2022/06/02 08:00:21;;;;;;;6.72;4.17;;;;;;;28.93;100.00;99816.66;1684029;84;21630;-59
2022/06/02 08:03:06;;;;;;;5.85;3.40;;;;;;;28.97;100.00;99815.27;1686484;84;20999;-61
2022/06/02 08:05:46;;;;;;;6.08;3.45;;;;;;;29.18;100.00;99793.53;1684908;84;21593;-59
2022/06/02 08:08:39;;;;;;;5.50;3.72;;;;;;;29.52;100.00;99811.67;1694115;83;21010;-59
2022/06/02 08:11:11;;;;;;;4.12;2.90;;;;;;;29.58;100.00;99812.91;1724931;81;21078;-61
2022/06/02 08:13:59;;;;;;;8.15;3.40;;;;;;;29.85;100.00;99811.97;1723911;82;21360;-59
2022/06/02 08:17:01;;;;;;;6.15;3.33;;;;;;;30.04;100.00;99812.38;1715563;82;21676;-59
2022/06/02 08:20:03;;;;;;;5.40;3.05;;;;;;;29.94;100.00;99818.79;1697941;83;21518;-59
2022/06/02 08:22:53;;;;;;;4.72;2.72;;;;;;;30.00;100.00;99812.19;1720519;81;20977;-59
2022/06/02 08:25:24;;;;;;;5.33;3.02;;;;;;;30.46;100.00;99810.80;1725957;81;21088;-59
2022/06/02 08:28:23;;;;;;;4.62;2.60;;;;;;;30.88;89.23;99812.09;1725474;81;20966;-57
2022/06/02 08:31:16;;;;;;;4.87;2.80;;;;;;;30.45;81.37;99809.18;1727467;81;21023;-58
2022/06/02 08:34:07;;;;;;;6.35;3.20;;;;;;;30.23;94.13;99818.80;1717752;81;20950;-58
2022/06/02 08:36:56;;;;;;;5.22;3.17;;;;;;;30.53;87.62;99811.59;1723460;81;21561;-58
2022/06/02 08:39:40;;;;;;;4.45;3.17;;;;;;;30.61;99.66;99814.56;1725230;82;21006;-58
2022/06/02 08:42:33;;;;;;;7.10;3.52;;;;;;;30.93;89.39;99813.66;1717575;82;21103;-59
2022/06/02 08:45:27;;;;;;;7.90;4.00;;;;;;;30.74;93.09;99823.38;1716001;81;21050;-59
2022/06/02 08:48:39;;;;;;;5.85;3.08;;;;;;;30.25;93.26;99793.94;1716574;82;21138;-59
2022/06/02 08:51:29;;;;;;;7.45;3.80;;;;;;;30.46;94.50;99814.41;1678941;83;21090;-61
2022/06/02 08:54:17;;;;;;;6.55;3.77;;;;;;;30.65;93.71;99807.53;1675373;84;21010;-60
2022/06/02 08:56:55;;;;;;;3.72;2.72;;;;;;;30.75;94.16;99808.10;1717043;82;21066;-59
2022/06/02 08:59:52;;;;;;;4.92;2.30;;;;;;;31.11;96.90;99809.45;1680450;83;21042;-59
2022/06/02 09:02:50;;;;;;;5.28;1.92;;;;;;;31.51;79.46;99811.06;1716144;82;20983;-59
2022/06/02 09:05:59;;;;;;;5.22;2.50;;;;;;;31.03;72.16;99805.86;1695672;82;21086;-59
2022/06/02 09:08:43;;;;;;;4.12;1.90;;;;;;;30.51;87.71;99806.16;1630689;85;21023;-59
2022/06/02 09:11:39;;;;;;;3.10;2.10;;;;;;;30.50;90.13;99795.52;1716164;82;21188;-58
2022/06/02 09:14:44;;;;;;;2.77;1.85;;;;;;;30.48;100.00;99792.92;1723878;82;21039;-58
2022/06/02 09:17:29;;;;;;;2.83;2.10;;;;;;;30.29;91.85;99792.70;1718553;82;21062;-59
2022/06/02 09:20:33;;;;;;;4.17;1.92;;;;;;;29.96;92.15;99796.76;1729360;81;21043;-58
2022/06/02 09:23:18;;;;;;;4.10;1.75;;;;;;;29.54;94.48;99801.69;1712518;82;21039;-58
2022/06/02 09:26:26;;;;;;;4.62;2.12;;;;;;;29.09;100.00;99793.88;1689243;82;21114;-58
2022/06/02 09:29:34;;;;;;;3.98;1.90;;;;;;;28.91;100.00;99793.81;1680568;85;21046;-57
2022/06/02 09:32:09;;;;;;;;;;;;;;;28.95;100.00;99793.23;1694876;83;21138;-57
2022/06/02 09:35:23;;;;;;;4.03;1.65;;;;;;;28.91;100.00;99798.02;1679535;84;20167;-57
2022/06/02 09:38:30;;;;;;;3.90;1.87;;;;;;;28.52;100.00;99796.36;1716961;82;21011;-57
2022/06/02 09:41:10;;;;;;;3.87;2.10;;;;;;;28.20;100.00;99796.73;1710188;83;21743;-58
2022/06/02 09:44:08;;;;;;;3.37;1.85;;;;;;;27.99;100.00;99793.15;1711871;82;21039;-59
2022/06/02 09:47:05;;;;;;;4.03;1.85;;;;;;;28.10;100.00;99790.47;1713300;82;21618;-58
2022/06/02 09:49:49;;;;;;;3.25;1.90;;;;;;;28.26;100.00;99786.00;1682062;85;21512;-58
2022/06/02 09:52:41;;;;;;;2.87;2.10;;;;;;;28.45;100.00;99777.34;1714074;82;21039;-59
2022/06/02 09:55:42;;;;;;;2.42;1.80;;;;;;;28.40;100.00;99778.50;1679160;82;21066;-58
2022/06/02 09:58:23;;;;;;;3.58;1.77;;;;;;;28.34;100.00;99775.07;1701436;82;20959;-59
2022/06/02 10:01:30;;;;;;;3.15;1.95;;;;;;;28.45;100.00;99767.55;1684975;82;21071;-59
2022/06/02 10:04:35;;;;;;;2.98;2.10;;;;;;;28.56;100.00;99761.38;1714911;82;20996;-57
2022/06/02 10:07:42;;;;;;;2.98;2.08;;;;;;;28.51;100.00;99753.38;1723063;81;21008;-58
2022/06/02 10:10:42;;;;;;;3.85;1.80;;;;;;;28.27;100.00;99761.02;1728688;81;21548;-58
2022/06/02 10:13:50;;;;;;;3.25;2.00;;;;;;;28.04;100.00;99752.82;1705187;82;21490;-58
2022/06/02 10:16:40;;;;;;;3.27;1.80;;;;;;;27.85;100.00;99754.45;1716293;82;21024;-57
2022/06/02 10:19:37;;;;;;;3.35;2.02;;;;;;;27.83;100.00;99757.66;1679460;85;20991;-58
2022/06/02 10:22:25;;;;;;;3.80;2.00;;;;;;;27.98;100.00;99745.98;1712689;82;21126;-58
2022/06/02 10:25:28;;;;;;;6.53;2.02;;;;;;;27.89;100.00;99733.72;1720894;82;21012;-58
2022/06/02 10:28:20;;;;;;;4.50;2.08;;;;;;;27.83;100.00;99733.07;1711046;82;20975;-59
2022/06/02 10:31:12;;;;;;;4.12;1.98;;;;;;;27.75;100.00;99730.81;1702267;82;21062;-59
2022/06/02 10:33:57;;;;;;;5.03;2.20;;;;;;;27.87;100.00;99724.92;1678839;84;20983;-58
2022/06/02 10:36:41;;;;;;;3.95;2.47;;;;;;;28.04;100.00;99726.24;1692820;82;21016;-58
2022/06/02 10:39:24;;;;;;;4.45;2.67;;;;;;;28.08;100.00;99716.72;1679822;84;21022;-58
2022/06/02 10:42:12;;;;;;;5.03;2.55;;;;;;;28.05;100.00;99717.47;1714122;82;21012;-59
2022/06/02 10:45:11;;;;;;;4.10;2.20;;;;;;;27.99;99.55;99701.41;1651036;83;21535;-59
2022/06/02 10:48:12;;;;;;;3.75;2.30;;;;;;;28.11;100.00;99708.94;1682647;83;21480;-58
2022/06/02 10:51:14;;;;;;;5.75;2.58;;;;;;;28.26;100.00;99699.23;1675548;83;21061;-58
2022/06/02 10:54:12;;;;;;;3.30;2.50;;;;;;;28.33;100.00;99699.27;1693745;83;20966;-58
2022/06/02 10:57:18;;;;;;;5.60;2.70;;;;;;;28.33;100.00;99695.08;1696951;83;21650;-57
2022/06/02 11:00:14;;;;;;;6.22;2.83;;;;;;;28.24;100.00;99694.02;1688656;83;21011;-58
2022/06/02 11:03:09;;;;;;;4.55;2.55;;;;;;;28.25;100.00;99687.82;1693213;83;20974;-58
2022/06/02 11:06:13;;;;;;;7.58;2.83;;;;;;;28.24;100.00;99686.20;1661232;83;21572;-60
2022/06/02 11:09:14;;;;;;;4.25;2.70;;;;;;;28.15;100.00;99684.58;1695482;83;21010;-58
2022/06/02 11:12:03;;;;;;;4.33;2.72;;;;;;;27.98;100.00;99683.04;1713065;82;21541;-58
2022/06/02 11:15:08;;;;;;;5.08;2.90;;;;;;;27.96;100.00;99682.02;1688688;83;21049;-59
2022/06/02 11:17:55;;;;;;;4.78;3.35;;;;;;;28.04;100.00;99676.69;1697295;83;20970;-57
2022/06/02 11:20:47;;;;;;;5.72;2.90;;;;;;;28.01;100.00;99672.47;1692768;83;21500;-58
2022/06/02 11:23:31;;;;;;;4.70;3.00;;;;;;;27.98;100.00;99666.25;1673889;83;21496;-58
2022/06/02 11:26:34;;;;;;;5.55;3.40;;;;;;;28.07;100.00;99657.73;1704606;82;21716;-59
2022/06/02 11:29:34;;;;;;;7.28;3.85;;;;;;;28.17;100.00;99663.99;1692451;83;21010;-58
2022/06/02 11:32:30;;;;;;;6.90;4.10;;;;;;;28.26;100.00;99654.45;1693893;83;21046;-57
2022/06/02 11:35:27;;;;;;;5.12;3.50;;;;;;;28.22;100.00;99650.83;1683819;83;20935;-58
2022/06/02 11:38:16;;;;;;;6.72;3.50;;;;;;;28.24;100.00;99640.02;1690754;83;21866;-59
2022/06/02 11:41:02;;;;;;;7.70;3.47;;;;;;;28.31;100.00;99638.66;1693791;83;21044;-59
2022/06/02 11:44:05;;;;;;;5.17;4.00;;;;;;;28.37;100.00;99646.91;1664130;83;21019;-59
2022/06/02 11:47:03;;;;;;;5.62;4.12;;;;;;;28.46;100.00;99635.55;1696939;81;21058;-59
2022/06/02 11:50:00;;;;;;;7.97;4.92;;;;;;;28.50;100.00;99634.97;1727322;81;20982;-58
2022/06/02 11:52:44;;;;;;;5.62;3.85;;;;;;;28.52;100.00;99626.95;1639468;86;20984;-58
2022/06/02 11:55:35;;;;;;;6.40;3.90;;;;;;;28.57;100.00;99620.19;1670394;81;21055;-58
2022/06/02 11:58:24;;;;;;;6.70;3.85;;;;;;;28.52;100.00;99621.98;1726133;81;21324;-59
2022/06/02 12:01:06;;;;;;;6.62;3.87;;;;;;;28.48;100.00;99616.97;1714965;81;21523;-58
2022/06/02 12:03:58;;;;;;;5.35;3.65;;;;;;;28.48;100.00;99618.36;1697801;81;20993;-57
2022/06/02 12:06:47;;;;;;;4.72;3.37;;;;;;;28.54;100.00;99613.98;1724789;81;21779;-58
2022/06/02 12:09:45;;;;;;;5.60;3.42;;;;;;;28.62;100.00;99610.81;1727175;81;21006;-58
2022/06/02 12:12:48;;;;;;;9.63;3.70;;;;;;;28.72;100.00;99616.86;1714166;81;21059;-59
2022/06/02 12:15:57;;;;;;;5.35;3.40;;;;;;;28.82;100.00;99604.28;1687566;83;21608;-58
2022/06/02 12:19:06;;;;;;;3.87;3.02;;;;;;;28.80;100.00;99588.48;1724009;83;21000;-58
2022/06/02 12:21:57;;;;;;;6.37;2.95;;;;;;;28.84;100.00;99602.50;1683263;84;21030;-58
2022/06/02 12:24:59;;;;;;;5.40;3.35;;;;;;;28.83;100.00;99605.09;1723855;82;20987;-57
2022/06/02 12:28:04;;;;;;;4.70;3.50;;;;;;;28.91;100.00;99596.28;1720356;82;21015;-59
2022/06/02 12:30:55;;;;;;;4.95;3.37;;;;;;;29.02;100.00;99595.70;1726956;81;21027;-58
2022/06/02 12:33:31;;;;;;;4.30;3.10;;;;;;;29.02;100.00;99597.10;1728869;81;21533;-58
2022/06/02 12:36:25;;;;;;;4.87;3.40;;;;;;;29.06;100.00;99595.11;1724425;81;21059;-59
2022/06/02 12:39:22;;;;;;;4.33;3.30;;;;;;;29.13;100.00;99590.91;1717801;82;21541;-59
2022/06/02 12:49:52;;;;;;;;;;;;;;;29.39;100.00;99589.75;1792088;79;22951;-57
2022/06/02 12:52:50;;;;;;;5.12;2.85;;;;;;;29.35;100.00;99593.74;1744280;82;20126;-57
2022/06/02 12:55:45;;;;;;;7.20;4.08;;;;;;;29.32;100.00;99594.55;1735774;82;21106;-60
2022/06/02 12:58:44;;;;;;;7.60;2.95;;;;;;;29.33;100.00;99583.55;1725980;81;20999;-59
2022/06/02 13:01:48;;;;;;;5.40;2.80;;;;;;;29.39;100.00;99581.33;1700700;84;21530;-59
2022/06/02 13:04:46;;;;;;;4.72;2.80;;;;;;;29.48;100.00;99578.11;1677215;84;21002;-59
2022/06/02 13:07:47;;;;;;;5.12;2.72;;;;;;;29.44;100.00;99576.70;1697936;84;20978;-58
2022/06/02 13:10:39;;;;;;;5.08;2.80;;;;;;;29.40;100.00;99570.33;1705597;83;21687;-59
2022/06/02 13:13:43;;;;;;;6.72;2.33;;;;;;;29.32;98.17;99560.31;1696673;84;21077;-60
2022/06/02 13:16:50;;;;;;;5.22;2.30;;;;;;;29.16;94.56;99559.27;1698126;84;21592;-61
2022/06/02 13:19:25;;;;;;;4.12;2.70;;;;;;;29.15;94.09;99554.09;1688167;83;21046;-59
2022/06/02 13:22:35;;;;;;;4.70;2.92;;;;;;;29.22;93.34;99554.09;1698052;84;21475;-59
2022/06/02 13:25:16;;;;;;;7.30;2.60;;;;;;;29.35;100.00;99550.28;1697983;84;21017;-58
2022/06/02 13:28:05;;;;;;;4.28;2.30;;;;;;;29.43;100.00;99551.89;1694944;83;20972;-58
2022/06/02 13:31:10;;;;;;;7.25;2.72;;;;;;;29.46;100.00;99544.88;1667986;85;21534;-59
2022/06/02 13:34:06;;;;;;;4.20;2.25;;;;;;;29.55;100.00;99543.84;1639829;85;21086;-59
2022/06/02 13:36:45;;;;;;;4.62;2.37;;;;;;;29.65;97.86;99544.42;1662380;85;21039;-59
2022/06/02 13:39:23;;;;;;;3.60;2.10;;;;;;;29.65;100.00;99552.84;1680759;85;21043;-59